createdAt,value
2022-09-27T00:04:18.735Z,7.45
2022-09-27T00:09:20.630Z,7.45
2022-09-27T00:14:22.492Z,7.93
2022-09-27T00:19:25.738Z,7.10
2022-09-27T00:24:27.634Z,7.50
2022-09-27T00:29:29.526Z,7.22
2022-09-27T00:34:31.486Z,7.75
2022-09-27T00:39:33.531Z,7.47
2022-09-27T00:44:38.697Z,7.30
2022-09-27T00:49:47.530Z,7.43
2022-09-27T00:54:55.618Z,7.20
2022-09-27T01:00:10.001Z,7.15
2022-09-27T01:05:14.815Z,6.88
2022-09-27T01:10:18.632Z,6.57
2022-09-27T01:15:30.168Z,6.68
2022-09-27T01:20:53.935Z,6.93
2022-09-27T01:26:05.070Z,6.90
2022-09-27T01:31:26.085Z,6.70
2022-09-27T01:36:36.438Z,6.47
2022-09-27T01:42:21.375Z,6.28
2022-09-27T01:48:06.631Z,6.68
2022-09-27T01:53:36.382Z,6.63
2022-09-27T01:59:15.652Z,6.45
2022-09-27T02:04:30.550Z,6.38
2022-09-27T02:09:50.165Z,6.68
2022-09-27T02:15:12.422Z,6.97
2022-09-27T02:20:29.776Z,6.88
2022-09-27T02:25:44.537Z,5.93
2022-09-27T02:30:48.534Z,6.50
2022-09-27T02:35:56.439Z,6.10
2022-09-27T02:40:58.325Z,5.82
2022-09-27T02:46:15.533Z,4.80
2022-09-27T02:51:54.814Z,5.40
2022-09-27T02:57:24.022Z,5.00
2022-09-27T03:02:41.029Z,5.80
2022-09-27T03:08:19.126Z,5.25
2022-09-27T03:13:21.198Z,4.68
2022-09-27T03:18:23.299Z,4.68
2022-09-27T03:23:44.043Z,4.22
2022-09-27T03:28:46.142Z,3.80
2022-09-27T03:33:47.964Z,4.10
2022-09-27T03:38:50.178Z,3.63
2022-09-27T03:43:57.901Z,3.78
2022-09-27T03:49:03.140Z,3.38
2022-09-27T03:54:05.049Z,4.00
2022-09-27T03:59:07.051Z,3.40
2022-09-27T04:04:29.187Z,3.60
2022-09-27T04:09:31.256Z,3.20
2022-09-27T04:14:36.376Z,3.35
2022-09-27T04:19:58.300Z,3.30
2022-09-27T04:25:02.605Z,3.30
2022-09-27T04:30:12.330Z,3.80
2022-09-27T04:36:02.244Z,3.50
2022-09-27T04:41:04.685Z,3.60
2022-09-27T04:46:09.330Z,4.10
2022-09-27T04:51:11.219Z,4.25
2022-09-27T04:56:14.012Z,4.50
2022-09-27T05:01:16.385Z,4.95
2022-09-27T05:06:20.823Z,5.05
2022-09-27T05:11:23.306Z,5.22
2022-09-27T05:16:43.788Z,4.82
2022-09-27T05:22:04.159Z,4.30
2022-09-27T05:27:11.621Z,4.10
2022-09-27T05:32:13.820Z,3.83
2022-09-27T05:37:15.808Z,4.07
2022-09-27T05:42:19.026Z,3.63
2022-09-27T05:47:20.832Z,3.47
2022-09-27T05:52:23.342Z,3.47
2022-09-27T05:57:26.110Z,3.35
2022-09-27T06:02:35.283Z,3.53
2022-09-27T06:08:00.800Z,3.85
2022-09-27T06:13:15.774Z,3.30
2022-09-27T06:18:18.187Z,3.42
2022-09-27T06:23:23.607Z,2.88
2022-09-27T06:28:26.548Z,3.50
2022-09-27T06:33:32.311Z,3.47
2022-09-27T06:38:37.120Z,2.70
2022-09-27T06:44:01.890Z,3.03
2022-09-27T06:49:29.361Z,3.15
2022-09-27T06:54:32.174Z,3.10
2022-09-27T06:59:53.007Z,2.85
2022-09-27T07:05:13.466Z,3.03
2022-09-27T07:10:39.909Z,2.70
2022-09-27T07:15:42.357Z,2.70
2022-09-27T07:20:48.025Z,2.65
2022-09-27T07:25:50.617Z,2.60
2022-09-27T07:30:55.875Z,2.83
2022-09-27T07:35:57.730Z,2.65
2022-09-27T07:41:06.454Z,2.83
2022-09-27T07:46:08.194Z,2.75
2022-09-27T07:51:28.740Z,3.08
2022-09-27T07:56:40.524Z,3.20
2022-09-27T08:01:46.495Z,2.40
2022-09-27T08:06:48.336Z,2.88
2022-09-27T08:11:49.976Z,3.25
2022-09-27T08:16:51.648Z,2.95
2022-09-27T08:22:09.632Z,3.00
2022-09-27T08:27:28.749Z,3.35
2022-09-27T08:32:37.091Z,3.10
2022-09-27T08:37:41.134Z,2.75
2022-09-27T08:42:58.873Z,3.10
2022-09-27T08:48:04.423Z,2.80
2022-09-27T08:53:28.192Z,2.60
2022-09-27T08:58:35.812Z,2.80
2022-09-27T09:03:55.365Z,2.97
2022-09-27T09:09:11.113Z,2.65
2022-09-27T09:14:30.428Z,2.40
2022-09-27T09:20:16.841Z,2.53
2022-09-27T09:25:29.403Z,2.63
2022-09-27T09:30:52.779Z,2.80
2022-09-27T09:36:13.949Z,2.13
2022-09-27T09:41:22.530Z,2.60
2022-09-27T09:46:46.543Z,2.40
2022-09-27T09:51:56.751Z,2.20
2022-09-27T09:57:11.614Z,2.30
2022-09-27T10:02:34.287Z,2.30
2022-09-27T10:07:45.848Z,2.55
2022-09-27T10:12:47.892Z,2.47
2022-09-27T10:17:54.697Z,2.20
2022-09-27T10:23:06.195Z,2.70
2022-09-27T10:28:32.968Z,2.78
2022-09-27T10:33:37.733Z,2.90
2022-09-27T10:38:52.636Z,3.17
2022-09-27T10:44:26.605Z,3.30
2022-09-27T10:49:41.958Z,3.60
2022-09-27T10:55:20.758Z,3.47
2022-09-27T11:00:31.352Z,2.97
2022-09-27T11:05:38.248Z,3.20
2022-09-27T11:10:40.406Z,2.97
2022-09-27T11:15:52.048Z,3.10
2022-09-27T11:21:09.996Z,2.97
2022-09-27T11:26:33.649Z,2.60
2022-09-27T11:32:13.889Z,2.35
2022-09-27T11:37:51.082Z,2.47
2022-09-27T11:43:27.058Z,2.50
2022-09-27T11:48:51.569Z,2.95
2022-09-27T11:54:06.362Z,2.67
2022-09-27T11:59:23.838Z,2.38
2022-09-27T12:04:51.010Z,2.47
2022-09-27T12:10:01.237Z,2.42
2022-09-27T12:15:13.139Z,2.65
2022-09-27T12:20:38.928Z,3.00
2022-09-27T12:25:42.754Z,3.20
2022-09-27T12:31:24.546Z,3.28
2022-09-27T12:36:25.810Z,3.80
2022-09-27T12:41:31.971Z,3.60
2022-09-27T12:47:11.360Z,4.40
2022-09-27T12:52:23.182Z,3.40
2022-09-27T12:57:35.043Z,3.58
2022-09-27T13:03:19.548Z,3.42
2022-09-27T13:08:56.585Z,3.80
2022-09-27T13:14:03.392Z,3.97
2022-09-27T13:19:05.738Z,4.47
2022-09-27T13:24:31.436Z,4.47
2022-09-27T13:29:34.076Z,4.95
2022-09-27T13:34:46.732Z,4.68
2022-09-27T13:40:24.503Z,4.32
2022-09-27T13:45:58.457Z,3.95
2022-09-27T13:51:38.553Z,3.65
2022-09-27T13:56:40.152Z,3.67
2022-09-27T14:01:51.258Z,3.63
2022-09-27T14:07:00.025Z,3.90
2022-09-27T14:12:26.926Z,4.45
2022-09-27T14:17:29.342Z,4.50
2022-09-27T14:22:34.986Z,5.00
2022-09-27T14:27:38.957Z,5.03
2022-09-27T14:32:58.450Z,5.18
2022-09-27T14:38:37.227Z,5.00
2022-09-27T14:43:50.104Z,4.65
2022-09-27T14:48:51.776Z,4.47
2022-09-27T14:54:00.668Z,4.47
2022-09-27T14:59:09.257Z,4.95
2022-09-27T15:04:15.102Z,5.00
2022-09-27T15:09:18.563Z,4.45
2022-09-27T15:14:22.410Z,4.32
2022-09-27T15:19:29.350Z,4.22
2022-09-27T15:24:47.286Z,4.93
2022-09-27T15:29:54.758Z,5.10
2022-09-27T15:35:05.601Z,5.40
2022-09-27T15:40:32.386Z,5.47
2022-09-27T15:45:37.260Z,5.57
2022-09-27T15:50:40.917Z,5.75
2022-09-27T15:55:45.118Z,5.00
2022-09-27T16:01:05.643Z,5.80
2022-09-27T16:06:07.367Z,5.28
2022-09-27T16:11:13.720Z,5.18
2022-09-27T16:16:17.905Z,4.90
2022-09-27T16:21:19.503Z,4.50
2022-09-27T16:26:21.167Z,4.70
2022-09-27T16:31:22.780Z,3.88
2022-09-27T16:36:24.393Z,5.05
2022-09-27T16:41:26.004Z,4.28
2022-09-27T16:46:27.637Z,6.35
2022-09-27T16:51:47.914Z,5.60
2022-09-27T16:56:53.256Z,3.53
2022-09-27T17:01:57.600Z,3.50
2022-09-27T17:06:59.708Z,3.65
2022-09-27T17:12:01.516Z,3.00
2022-09-27T17:17:03.327Z,2.47
2022-09-27T17:22:07.490Z,2.92
2022-09-27T17:27:09.291Z,2.72
2022-09-27T17:32:12.866Z,2.67
2022-09-27T17:37:14.616Z,2.60
2022-09-27T17:42:18.930Z,2.53
2022-09-27T17:47:39.122Z,3.22
2022-09-27T17:52:41.010Z,4.07
2022-09-27T17:57:42.841Z,4.35
2022-09-27T18:02:45.248Z,4.40
2022-09-27T18:07:47.292Z,3.90
2022-09-27T18:12:49.027Z,4.65
2022-09-27T18:17:55.774Z,4.22
2022-09-27T18:22:59.691Z,5.47
2022-09-27T18:28:01.689Z,3.70
2022-09-27T18:33:03.577Z,3.58
2022-09-27T18:38:05.340Z,3.97
2022-09-27T18:43:07.150Z,4.28
2022-09-27T18:48:09.575Z,4.85
2022-09-27T18:53:11.406Z,4.97
2022-09-27T18:58:16.030Z,5.15
2022-09-27T19:03:17.871Z,5.65
2022-09-27T19:08:19.673Z,5.15
2022-09-27T19:13:25.150Z,6.78
2022-09-27T19:18:30.212Z,6.97
2022-09-27T19:23:32.080Z,7.43
2022-09-27T19:28:39.597Z,7.63
2022-09-27T19:33:41.591Z,6.85
2022-09-27T19:38:43.832Z,5.60
2022-09-27T19:43:52.495Z,4.50
2022-09-27T19:48:56.204Z,5.55
2022-09-27T19:53:58.065Z,3.33
2022-09-27T19:59:03.724Z,3.88
2022-09-27T20:04:08.128Z,3.50
2022-09-27T20:09:10.042Z,4.03
2022-09-27T20:14:11.975Z,4.07
2022-09-27T20:19:13.768Z,3.90
2022-09-27T20:24:16.254Z,3.88
2022-09-27T20:29:18.092Z,3.83
2022-09-27T20:34:19.874Z,3.83
2022-09-27T20:39:22.999Z,3.90
2022-09-27T20:44:25.150Z,4.13
2022-09-27T20:49:27.015Z,3.55
2022-09-27T20:54:28.841Z,4.00
2022-09-27T20:59:30.599Z,3.60
2022-09-27T21:04:32.359Z,3.30
2022-09-27T21:09:35.939Z,3.67
2022-09-27T21:14:37.676Z,3.95
2022-09-27T21:19:41.698Z,3.30
2022-09-27T21:24:43.426Z,3.10
2022-09-27T21:29:45.168Z,3.30
2022-09-27T21:34:47.057Z,2.80
2022-09-27T21:39:48.936Z,3.15
2022-09-27T21:44:50.654Z,3.33
2022-09-27T21:49:52.390Z,3.03
2022-09-27T21:54:54.480Z,2.70
2022-09-27T21:59:57.087Z,3.05
2022-09-27T22:04:59.731Z,2.60
2022-09-27T22:10:01.544Z,2.65
2022-09-27T22:15:03.512Z,2.92
2022-09-27T22:20:05.745Z,3.05
2022-09-27T22:25:07.808Z,2.65
2022-09-27T22:30:09.967Z,2.78
2022-09-27T22:35:11.799Z,2.63
2022-09-27T22:40:13.916Z,2.70
2022-09-27T22:45:15.759Z,2.55
2022-09-27T22:50:17.461Z,2.70
2022-09-27T22:55:19.080Z,3.30
2022-09-27T23:00:20.814Z,3.20
2022-09-27T23:05:23.071Z,2.97
2022-09-27T23:10:24.717Z,2.78
2022-09-27T23:15:26.273Z,2.70
2022-09-27T23:20:29.730Z,2.80
2022-09-27T23:25:31.218Z,2.70
2022-09-27T23:30:33.023Z,2.90
2022-09-27T23:35:34.582Z,3.40
2022-09-27T23:40:36.665Z,3.10
2022-09-27T23:45:38.598Z,3.00
2022-09-27T23:50:44.131Z,3.50
2022-09-27T23:55:45.779Z,3.22
